WetterOnline ( https://www.wetteronline.de )

Wetter aktuell Hemer

Aktuelles Wetter: Lüdenscheid (392m)

6-stündlich | Neueste Meldungen
Ortszeit Temperatur Wetter
Di, 15.06. 8:00 15.0° C wolkig
Di, 15.06. 2:00 17.2° C wolkig
Mo, 14.06. 20:00 25.3° C leicht bewölkt
Mo, 14.06. 14:00 23.7° C wolkenlos
Mo, 14.06. 8:00 14.8° C wolkenlos
Mo, 14.06. 2:00 11.3° C wolkenlos
So, 13.06. 20:00 19.2° C wolkenlos
So, 13.06. 14:00 18.9° C wolkenlos
Ortszeit Temperatur Wetter
Di, 15.06. 10:00 19.5° C wolkenlos
Di, 15.06. 9:50 19.5° C wolkenlos
Di, 15.06. 9:40 18.9° C leicht bewölkt
Di, 15.06. 9:30 18.0° C wolkig
Di, 15.06. 9:20 18.0° C wolkig
Di, 15.06. 9:10 17.5° C leicht bewölkt
Di, 15.06. 9:00 17.2° C wolkenlos
Di, 15.06. 8:30 15.4° C wolkig
Di, 15.06. 8:00 15.0° C wolkig
Di, 15.06. 7:30 15.5° C bewölkt
Di, 15.06. 7:00 15.4° C wolkig
Di, 15.06. 6:30 14.0° C wolkig
Ortszeit Relative Feuchte Sichtweite
Di, 15.06. 8:00 87% 9 km
Di, 15.06. 2:00 71% 35 km
Mo, 14.06. 20:00 34% 40 km
Mo, 14.06. 14:00 38% 60 km
Mo, 14.06. 8:00 71% 40 km
Mo, 14.06. 2:00 73% 45 km
So, 13.06. 20:00 42% 55 km
So, 13.06. 14:00 41% >70 km
Ortszeit Relative Feuchte Sichtweite
Di, 15.06. 10:00 68% 20 km
Di, 15.06. 9:50 68% -
Di, 15.06. 9:40 71% -
Di, 15.06. 9:30 74% 16 km
Di, 15.06. 9:20 74% -
Di, 15.06. 9:10 77% -
Di, 15.06. 9:00 79% -
Di, 15.06. 8:30 86% 9 km
Di, 15.06. 8:00 87% 9 km
Di, 15.06. 7:30 82% 18 km
Di, 15.06. 7:00 82% 19 km
Di, 15.06. 6:30 88% 19 km
Ortszeit Niederschlagsmenge Niederschlagsart
Di, 15.06. 8:00 0.0 l/m2 in 12 Std. -
Di, 15.06. 2:00 0.0 l/m2 in 6 Std. -
Mo, 14.06. 20:00 0.0 l/m2 in 12 Std. -
Mo, 14.06. 14:00 0.0 l/m2 in 6 Std. -
Mo, 14.06. 8:00 0.0 l/m2 in 12 Std. -
Mo, 14.06. 2:00 0.0 l/m2 in 6 Std. -
So, 13.06. 20:00 0.0 l/m2 in 12 Std. -
So, 13.06. 14:00 0.0 l/m2 in 6 Std. -
Ortszeit Niederschlagsmenge Niederschlagsart
Di, 15.06. 10:00 0.0 l/m2 in 1 Std. -
Di, 15.06. 9:50 keine Meldung -
Di, 15.06. 9:40 keine Meldung -
Di, 15.06. 9:30 0.0 l/m2 in 1 Std. -
Di, 15.06. 9:20 keine Meldung -
Di, 15.06. 9:10 keine Meldung -
Di, 15.06. 9:00 keine Meldung -
Di, 15.06. 8:30 0.0 l/m2 in 1 Std. -
Di, 15.06. 8:00 0.0 l/m2 in 1 Std. -
Di, 15.06. 7:30 0.0 l/m2 in 1 Std. -
Di, 15.06. 7:00 0.0 l/m2 in 1 Std. -
Di, 15.06. 6:30 0.0 l/m2 in 1 Std. -
Ortszeit Stärke Spitze Richtung
km/h Bft. km/h Grad Sektor
Di, 15.06. 8:00 9 2 22 10° N
Di, 15.06. 2:00 7 2 18 360° N
Mo, 14.06. 20:00 6 1 30 280° W
Mo, 14.06. 14:00 11 2 24 230° SW
Mo, 14.06. 8:00 2 1 6 100° O
Mo, 14.06. 2:00 4 1 11 80° O
So, 13.06. 20:00 4 1 22 60° NO
So, 13.06. 14:00 7 2 22 320° NW
Ortszeit Stärke Spitze Richtung
km/h Bft. km/h Grad Sektor
Di, 15.06. 10:00 7 2 15 80° O
Di, 15.06. 9:50 7 2 - 80° O
Di, 15.06. 9:40 7 2 - 100° O
Di, 15.06. 9:30 7 2 13 100° O
Di, 15.06. 9:20 7 2 - 100° O
Di, 15.06. 9:10 7 2 - 100° O
Di, 15.06. 9:00 7 2 - 100° O
Di, 15.06. 8:30 7 2 18 90° O
Di, 15.06. 8:00 9 2 22 10° N
Di, 15.06. 7:30 4 1 11 30° NO
Di, 15.06. 7:00 4 1 7 40° NO
Di, 15.06. 6:30 6 1 7 60° NO
Ortszeit Untergrenze Bedeckung Gattung
total tief tief mittel hoch
Di, 15.06. 8:00 180 m 8/8 3/8 - - -
Di, 15.06. 2:00 9000 m 8/8 0/8 - - -
Mo, 14.06. 20:00 10500 m 8/8 0/8 - - -
Mo, 14.06. 14:00 - 0/8 0/8 - - -
Mo, 14.06. 8:00 - 0/8 0/8 - - -
Mo, 14.06. 2:00 - 0/8 0/8 - - -
So, 13.06. 20:00 - 0/8 0/8 - - -
So, 13.06. 14:00 - 0/8 0/8 - - -
Ortszeit Bedeckungsgrad in Achtel und Wolkenuntergrenze
Di, 15.06. 10:00 keine Wolken
Di, 15.06. 9:50 keine Wolken
Di, 15.06. 9:40 2(6300m)
Di, 15.06. 9:30 5(6300m)
Di, 15.06. 9:20 5(6300m)
Di, 15.06. 9:10 3(6300m)
Di, 15.06. 9:00 keine Wolken
Di, 15.06. 8:30 5(180m) 5(6900m) 6(8700m)
Di, 15.06. 8:00 3(180m) 8(6900m) 8(10500m)
Di, 15.06. 7:30 5(6600m) 8(10500m) 8(10500m)
Di, 15.06. 7:00 8(7500m)
Di, 15.06. 6:30 8(7500m) 8(9000m) 8(10500m)
Ortszeit Luftdruck NN (hPa) Tendenz (hPa in 3 Std.)
Di, 15.06. 8:00 1021 + 1,1
Di, 15.06. 2:00 1019 + 0,1
Mo, 14.06. 20:00 1018 - 0,9
Mo, 14.06. 14:00 1020 - 1,1
Mo, 14.06. 8:00 1023 - 0,5
Mo, 14.06. 2:00 1026 - 0,7
So, 13.06. 20:00 1026 - 0,5
So, 13.06. 14:00 1028 0,0
Ortszeit Luftdruck NN (hPa) Tendenz (hPa in 3 Std.)
Di, 15.06. 10:00 1020 + 1,0
Di, 15.06. 9:50 1020 keine Meldung
Di, 15.06. 9:40 1020 keine Meldung
Di, 15.06. 9:30 1020 + 1,1
Di, 15.06. 9:20 1020 keine Meldung
Di, 15.06. 9:10 1020 keine Meldung
Di, 15.06. 9:00 1020 keine Meldung
Di, 15.06. 8:30 1021 + 1,1
Di, 15.06. 8:00 1021 + 1,1
Di, 15.06. 7:30 1020 + 0,6
Di, 15.06. 7:00 1020 + 0,1
Di, 15.06. 6:30 1020 - 0,1
Ortszeit Schneehöhe (cm)
Di, 15.06. 8:00 -
Di, 15.06. 2:00 -
Mo, 14.06. 20:00 -
Mo, 14.06. 14:00 -
Mo, 14.06. 8:00 -
Mo, 14.06. 2:00 -
So, 13.06. 20:00 -
So, 13.06. 14:00 -
Ortszeit Schneehöhe (cm)
Di, 15.06. 10:00 -
Di, 15.06. 9:50 -
Di, 15.06. 9:40 -
Di, 15.06. 9:30 -
Di, 15.06. 9:20 -
Di, 15.06. 9:10 -
Di, 15.06. 9:00 -
Di, 15.06. 8:30 -
Di, 15.06. 8:00 -
Di, 15.06. 7:30 -
Di, 15.06. 7:00 -
Di, 15.06. 6:30 -
Link zu dieser Seite / Seite empfehlen

Das Wetter in ...